Time;durP1;ratioP1;P1;durP2;ratioP2;P2;SDS_P1;SDS_P2;PMS_P1;PMS_P2;Temp;Humidity;BMP_temperature;BMP_pressure;BME280_temperature;BME280_humidity;BME280_pressure;Samples;Min_cycle;Max_cycle;Signal;HPM_P1;HPM_P2
2022/08/25 00:00:48;;;;;;;5.60;1.55;;;;;;;;;;5017183;28;20382;-43
2022/08/25 00:03:15;;;;;;;5.32;1.80;;;;;;;;;;5013931;28;20049;-42
2022/08/25 00:05:42;;;;;;;4.33;1.73;;;;;;;;;;5019321;28;20478;-45
2022/08/25 00:08:09;;;;;;;4.95;1.63;;;;;;;;;;5010360;28;20041;-44
2022/08/25 00:10:38;;;;;;;4.60;1.60;;;;;;;;;;4999807;28;20042;-46
2022/08/25 00:13:05;;;;;;;4.05;1.25;;;;;;;;;;5013272;28;20043;-46
2022/08/25 00:15:32;;;;;;;6.40;2.25;;;;;;;;;;5021224;28;20078;-43
2022/08/25 00:17:59;;;;;;;6.77;1.63;;;;;;;;;;5011589;28;20103;-42
2022/08/25 00:20:26;;;;;;;5.22;1.88;;;;;;;;;;5013855;28;20042;-44
2022/08/25 00:22:54;;;;;;;6.68;2.28;;;;;;;;;;5008582;28;20495;-41
2022/08/25 00:25:24;;;;;;;7.35;1.83;;;;;;;;;;4988437;28;20582;-44
2022/08/25 00:27:51;;;;;;;6.10;1.85;;;;;;;;;;5009395;28;20038;-43
2022/08/25 00:30:18;;;;;;;7.83;1.97;;;;;;;;;;5016150;28;20048;-44
2022/08/25 00:32:44;;;;;;;5.38;1.75;;;;;;;;;;5012886;28;20041;-42
2022/08/25 00:35:11;;;;;;;6.57;2.00;;;;;;;;;;5006219;28;20044;-43
2022/08/25 00:37:38;;;;;;;5.03;1.90;;;;;;;;;;5013100;28;20201;-43
2022/08/25 00:40:05;;;;;;;4.97;1.45;;;;;;;;;;5014424;28;20531;-42
2022/08/25 00:42:33;;;;;;;5.90;2.30;;;;;;;;;;5005877;28;20084;-43
2022/08/25 00:44:59;;;;;;;6.28;2.28;;;;;;;;;;4995947;28;21323;-42
2022/08/25 00:47:26;;;;;;;4.93;2.00;;;;;;;;;;4995199;28;20065;-44
2022/08/25 00:49:56;;;;;;;5.43;1.85;;;;;;;;;;5012281;28;20069;-43
2022/08/25 00:52:24;;;;;;;6.63;2.38;;;;;;;;;;5011587;28;20037;-42
2022/08/25 00:54:52;;;;;;;5.67;2.27;;;;;;;;;;5027105;28;20130;-43
2022/08/25 00:57:20;;;;;;;6.20;2.47;;;;;;;;;;5032884;28;20059;-44
2022/08/25 00:59:48;;;;;;;5.43;1.90;;;;;;;;;;5026309;28;20339;-42
2022/08/25 01:02:15;;;;;;;5.30;1.90;;;;;;;;;;5028456;28;20048;-43
2022/08/25 01:04:42;;;;;;;5.78;2.13;;;;;;;;;;5039032;28;20033;-43
2022/08/25 01:07:09;;;;;;;5.53;2.00;;;;;;;;;;5028620;28;20044;-43
2022/08/25 01:09:35;;;;;;;5.50;2.35;;;;;;;;;;5011694;28;20556;-44
2022/08/25 01:12:02;;;;;;;5.50;2.38;;;;;;;;;;5040202;28;20036;-46
2022/08/25 01:14:31;;;;;;;5.60;2.03;;;;;;;;;;5031015;28;20037;-44
2022/08/25 01:16:59;;;;;;;6.03;2.47;;;;;;;;;;5033463;28;20139;-44
2022/08/25 01:19:27;;;;;;;5.57;1.77;;;;;;;;;;5028632;28;20128;-44
2022/08/25 01:21:56;;;;;;;5.97;2.63;;;;;;;;;;5034111;28;20051;-42
2022/08/25 01:24:26;;;;;;;5.60;2.38;;;;;;;;;;5026626;28;20041;-46
2022/08/25 01:26:52;;;;;;;5.63;2.03;;;;;;;;;;5035287;28;20123;-41
2022/08/25 01:29:24;;;;;;;6.97;2.45;;;;;;;;;;5037130;28;20486;-45
2022/08/25 01:31:53;;;;;;;5.73;2.30;;;;;;;;;;5027986;28;20063;-41
2022/08/25 01:34:20;;;;;;;5.57;2.03;;;;;;;;;;5020475;28;20668;-43
2022/08/25 01:36:46;;;;;;;6.43;2.42;;;;;;;;;;5033235;28;20040;-44
2022/08/25 01:39:15;;;;;;;5.55;2.17;;;;;;;;;;5032191;28;20099;-42
2022/08/25 01:41:50;;;;;;;6.45;2.45;;;;;;;;;;5031814;28;20045;-42
2022/08/25 01:44:17;;;;;;;7.47;2.10;;;;;;;;;;5028576;28;20068;-46
2022/08/25 01:46:44;;;;;;;5.88;2.70;;;;;;;;;;5029088;28;20447;-42
2022/08/25 01:49:10;;;;;;;5.07;2.20;;;;;;;;;;5030175;28;20657;-42
2022/08/25 01:51:38;;;;;;;5.93;2.17;;;;;;;;;;5027589;28;20474;-43
2022/08/25 01:54:05;;;;;;;6.07;2.13;;;;;;;;;;5019777;28;20343;-42
2022/08/25 01:56:34;;;;;;;4.97;2.10;;;;;;;;;;5011897;28;20061;-43
2022/08/25 01:59:00;;;;;;;5.80;2.08;;;;;;;;;;5017247;28;20037;-44
2022/08/25 02:01:27;;;;;;;5.75;2.10;;;;;;;;;;5000593;28;20034;-44
2022/08/25 02:03:55;;;;;;;4.82;1.63;;;;;;;;;;4991719;28;20038;-45
2022/08/25 02:06:25;;;;;;;5.22;1.83;;;;;;;;;;5008987;28;20188;-44
2022/08/25 02:08:52;;;;;;;5.20;1.83;;;;;;;;;;5000937;28;20049;-49
2022/08/25 02:11:19;;;;;;;4.80;1.58;;;;;;;;;;4991118;28;20590;-46
2022/08/25 02:13:47;;;;;;;4.13;1.40;;;;;;;;;;4996248;28;20046;-42
2022/08/25 02:16:16;;;;;;;5.60;1.55;;;;;;;;;;5010186;28;20491;-44
2022/08/25 02:18:44;;;;;;;5.95;2.30;;;;;;;;;;5005192;28;20056;-42
2022/08/25 02:21:11;;;;;;;6.10;2.40;;;;;;;;;;5009685;28;20038;-44
2022/08/25 02:23:37;;;;;;;5.15;1.63;;;;;;;;;;5010551;28;20793;-44
2022/08/25 02:26:04;;;;;;;4.47;1.70;;;;;;;;;;5004006;28;20097;-43
2022/08/25 02:28:31;;;;;;;5.03;2.00;;;;;;;;;;4988775;28;20033;-42
2022/08/25 02:30:59;;;;;;;5.50;1.80;;;;;;;;;;5001041;28;20549;-47
2022/08/25 02:33:26;;;;;;;5.27;1.90;;;;;;;;;;5000449;28;20550;-42
2022/08/25 02:35:53;;;;;;;5.28;2.05;;;;;;;;;;5005689;28;20129;-42
2022/08/25 02:38:19;;;;;;;6.38;2.25;;;;;;;;;;5009571;28;20049;-43
2022/08/25 02:40:46;;;;;;;5.78;2.30;;;;;;;;;;4994305;28;20487;-45
2022/08/25 02:43:12;;;;;;;6.60;1.73;;;;;;;;;;5017166;28;20103;-45
2022/08/25 02:45:39;;;;;;;5.10;1.90;;;;;;;;;;5008852;28;20509;-44
2022/08/25 02:48:07;;;;;;;5.25;2.00;;;;;;;;;;5005637;28;20045;-41
2022/08/25 02:50:33;;;;;;;5.95;2.17;;;;;;;;;;5000844;28;20176;-45
2022/08/25 02:53:00;;;;;;;5.10;1.80;;;;;;;;;;5013311;28;20125;-43
2022/08/25 02:55:26;;;;;;;5.65;1.95;;;;;;;;;;5012313;28;20103;-42
2022/08/25 02:57:53;;;;;;;4.80;1.63;;;;;;;;;;5012199;28;20041;-44
2022/08/25 03:00:20;;;;;;;5.03;1.92;;;;;;;;;;5013508;28;20131;-42
2022/08/25 03:02:46;;;;;;;5.03;1.90;;;;;;;;;;4978146;28;20049;-44
2022/08/25 03:05:14;;;;;;;5.75;2.10;;;;;;;;;;4995743;28;20041;-43
2022/08/25 03:07:42;;;;;;;5.50;1.88;;;;;;;;;;5011667;28;20063;-44
2022/08/25 03:10:10;;;;;;;4.83;1.60;;;;;;;;;;5015357;28;20037;-42
2022/08/25 03:12:37;;;;;;;4.93;1.50;;;;;;;;;;5016285;28;20037;-41
2022/08/25 03:15:04;;;;;;;5.53;1.60;;;;;;;;;;5011285;28;20489;-42
2022/08/25 03:17:30;;;;;;;4.45;1.63;;;;;;;;;;5001214;28;20069;-44
2022/08/25 03:19:57;;;;;;;5.18;2.05;;;;;;;;;;4992917;28;20045;-42
2022/08/25 03:22:25;;;;;;;4.70;1.70;;;;;;;;;;5015670;28;20041;-45
2022/08/25 03:26:52;;;;;;;5.40;2.15;;;;;;;;;;5013076;28;20041;-42
2022/08/25 03:27:37;;;;;;;4.55;1.67;;;;;;;;;;5010011;28;20117;-45
2022/08/25 03:30:03;;;;;;;6.07;1.83;;;;;;;;;;5013122;28;20152;-42
2022/08/25 03:32:31;;;;;;;4.85;1.60;;;;;;;;;;5023221;28;20097;-45
2022/08/25 03:34:57;;;;;;;5.03;1.98;;;;;;;;;;5021942;28;20621;-44
2022/08/25 03:37:25;;;;;;;5.10;1.77;;;;;;;;;;5023862;28;20049;-46
2022/08/25 03:39:52;;;;;;;5.13;1.80;;;;;;;;;;5014851;28;20055;-43
2022/08/25 03:42:18;;;;;;;5.68;2.20;;;;;;;;;;4998330;28;20111;-42
2022/08/25 03:44:45;;;;;;;7.00;2.60;;;;;;;;;;4994802;28;20049;-43
2022/08/25 03:47:12;;;;;;;8.25;3.10;;;;;;;;;;5007590;28;20415;-44
2022/08/25 03:49:38;;;;;;;9.63;3.05;;;;;;;;;;5020276;28;20487;-42
2022/08/25 03:52:05;;;;;;;8.03;2.93;;;;;;;;;;4987764;28;20030;-43
2022/08/25 03:54:33;;;;;;;9.25;3.10;;;;;;;;;;5020018;28;20136;-42
2022/08/25 03:56:59;;;;;;;7.10;3.30;;;;;;;;;;5035636;28;20512;-44
2022/08/25 03:59:26;;;;;;;7.38;2.72;;;;;;;;;;5036578;28;20833;-42
2022/08/25 04:01:52;;;;;;;6.50;2.90;;;;;;;;;;5038525;28;20112;-45
2022/08/25 04:04:21;;;;;;;7.80;2.97;;;;;;;;;;5040290;28;20044;-41
2022/08/25 04:06:47;;;;;;;6.97;2.92;;;;;;;;;;5041263;28;20144;-43
2022/08/25 04:09:14;;;;;;;6.57;3.20;;;;;;;;;;5033951;28;20032;-44
2022/08/25 04:11:41;;;;;;;7.25;3.45;;;;;;;;;;5033361;28;20068;-42
2022/08/25 04:14:08;;;;;;;7.03;3.03;;;;;;;;;;5034476;28;20060;-44
2022/08/25 04:16:35;;;;;;;6.13;2.93;;;;;;;;;;5027265;28;20048;-42
2022/08/25 04:19:03;;;;;;;6.43;3.00;;;;;;;;;;5035550;28;20049;-42
2022/08/25 04:21:29;;;;;;;8.15;2.70;;;;;;;;;;5006117;28;20148;-42
2022/08/25 04:23:56;;;;;;;6.07;2.40;;;;;;;;;;5035361;28;20126;-44
2022/08/25 04:26:25;;;;;;;7.28;2.67;;;;;;;;;;5029713;28;20102;-45
2022/08/25 04:28:53;;;;;;;5.67;2.20;;;;;;;;;;5035027;28;20041;-43
2022/08/25 04:31:20;;;;;;;7.97;2.22;;;;;;;;;;5034952;28;20045;-43
2022/08/25 04:33:47;;;;;;;6.18;2.47;;;;;;;;;;5030470;28;20059;-43
2022/08/25 04:36:15;;;;;;;4.70;1.90;;;;;;;;;;5050772;28;20071;-42
2022/08/25 04:38:42;;;;;;;4.70;1.75;;;;;;;;;;5030402;28;20383;-43
2022/08/25 04:41:10;;;;;;;4.50;1.03;;;;;;;;;;5039287;28;20033;-42
2022/08/25 04:43:38;;;;;;;6.68;1.67;;;;;;;;;;5031341;28;20040;-43
2022/08/25 04:46:07;;;;;;;4.22;1.27;;;;;;;;;;5033832;28;20045;-44
2022/08/25 04:48:33;;;;;;;4.75;1.08;;;;;;;;;;5031362;28;20642;-42
2022/08/25 04:51:03;;;;;;;4.10;1.40;;;;;;;;;;5035317;28;20208;-44
2022/08/25 04:53:30;;;;;;;4.63;0.93;;;;;;;;;;5031012;28;20114;-43
2022/08/25 04:55:57;;;;;;;2.97;0.73;;;;;;;;;;5034595;28;20041;-45
2022/08/25 04:58:24;;;;;;;5.22;1.05;;;;;;;;;;5011009;28;21486;-43
2022/08/25 05:00:50;;;;;;;3.97;1.10;;;;;;;;;;5034161;28;20490;-41
2022/08/25 05:03:18;;;;;;;3.60;0.90;;;;;;;;;;5025310;28;20041;-42
2022/08/25 05:05:44;;;;;;;3.40;0.70;;;;;;;;;;5036909;28;20118;-43
2022/08/25 05:08:11;;;;;;;3.70;1.00;;;;;;;;;;5024582;28;20041;-42
2022/08/25 05:10:39;;;;;;;4.95;1.08;;;;;;;;;;5034630;28;20045;-42
2022/08/25 05:13:06;;;;;;;2.80;0.70;;;;;;;;;;5030824;28;20037;-41
2022/08/25 05:15:50;;;;;;;3.42;0.50;;;;;;;;;;5041642;28;20032;-47
2022/08/25 05:18:19;;;;;;;3.00;0.63;;;;;;;;;;5035303;28;20490;-43
2022/08/25 05:20:45;;;;;;;3.55;0.60;;;;;;;;;;5032971;28;20040;-42
2022/08/25 05:23:12;;;;;;;3.40;0.68;;;;;;;;;;5008050;28;20048;-44
2022/08/25 05:25:39;;;;;;;3.85;0.70;;;;;;;;;;5029980;28;20059;-43
2022/08/25 05:28:05;;;;;;;3.03;0.60;;;;;;;;;;5007435;28;20037;-42
2022/08/25 05:30:32;;;;;;;3.87;0.60;;;;;;;;;;5032699;28;20124;-43
2022/08/25 05:32:58;;;;;;;2.88;0.75;;;;;;;;;;5009234;28;20041;-43
2022/08/25 05:35:26;;;;;;;3.15;0.80;;;;;;;;;;5035737;28;20318;-42
2022/08/25 05:37:54;;;;;;;3.38;0.90;;;;;;;;;;5020540;28;20103;-43
2022/08/25 05:40:20;;;;;;;3.50;0.77;;;;;;;;;;5041971;28;20044;-43
2022/08/25 05:42:47;;;;;;;2.93;0.70;;;;;;;;;;5030111;28;20040;-44
2022/08/25 05:45:14;;;;;;;4.78;0.82;;;;;;;;;;5040554;28;20033;-41
2022/08/25 05:47:40;;;;;;;3.50;0.98;;;;;;;;;;5030896;28;20102;-43
2022/08/25 05:50:07;;;;;;;3.20;0.82;;;;;;;;;;5035443;28;20045;-42
2022/08/25 05:52:35;;;;;;;2.88;0.50;;;;;;;;;;5019492;28;20041;-42
2022/08/25 05:55:02;;;;;;;4.47;0.87;;;;;;;;;;5030040;28;20048;-45
2022/08/25 05:57:28;;;;;;;3.45;0.75;;;;;;;;;;5037451;28;20044;-41
2022/08/25 05:59:55;;;;;;;3.60;0.90;;;;;;;;;;5036919;28;20045;-44
2022/08/25 06:05:05;;;;;;;3.30;0.90;;;;;;;;;;5022941;28;20175;-43
2022/08/25 06:07:32;;;;;;;3.07;0.70;;;;;;;;;;5028208;28;20221;-43
2022/08/25 06:10:00;;;;;;;3.38;0.93;;;;;;;;;;5030558;28;20037;-44
2022/08/25 06:12:27;;;;;;;3.28;0.88;;;;;;;;;;5031836;28;20052;-42
2022/08/25 06:14:53;;;;;;;3.38;0.60;;;;;;;;;;5027644;28;20060;-42
2022/08/25 06:17:20;;;;;;;3.47;0.60;;;;;;;;;;5048654;28;20041;-43
2022/08/25 06:19:46;;;;;;;3.67;0.80;;;;;;;;;;5025220;28;20036;-43
2022/08/25 06:22:13;;;;;;;3.60;0.82;;;;;;;;;;5031019;28;20065;-44
2022/08/25 06:24:39;;;;;;;3.58;0.70;;;;;;;;;;5021606;28;20037;-41
2022/08/25 06:27:07;;;;;;;4.85;0.90;;;;;;;;;;5038341;28;20033;-42
2022/08/25 06:29:34;;;;;;;4.05;0.90;;;;;;;;;;5030716;28;20040;-42
2022/08/25 06:32:00;;;;;;;3.70;0.80;;;;;;;;;;5036606;28;20056;-41
2022/08/25 06:34:27;;;;;;;3.50;0.70;;;;;;;;;;5016759;28;20037;-43
2022/08/25 06:36:53;;;;;;;3.45;0.90;;;;;;;;;;5035399;28;20494;-41
2022/08/25 06:39:20;;;;;;;3.90;1.02;;;;;;;;;;5036581;28;20056;-41
2022/08/25 06:41:50;;;;;;;3.60;0.88;;;;;;;;;;5029570;28;20315;-42
2022/08/25 06:44:18;;;;;;;3.03;0.80;;;;;;;;;;5031033;28;20445;-43
2022/08/25 06:46:45;;;;;;;3.28;0.82;;;;;;;;;;5023195;28;20044;-44
2022/08/25 06:49:11;;;;;;;3.95;1.17;;;;;;;;;;5034484;28;20094;-42
2022/08/25 06:51:38;;;;;;;4.35;0.70;;;;;;;;;;5035662;28;20556;-42
2022/08/25 06:54:06;;;;;;;3.78;0.85;;;;;;;;;;5031487;28;20049;-42
2022/08/25 06:56:32;;;;;;;3.67;0.70;;;;;;;;;;5033183;28;20079;-45
2022/08/25 06:59:00;;;;;;;3.30;0.80;;;;;;;;;;5039541;28;20654;-43
2022/08/25 07:01:28;;;;;;;5.25;1.20;;;;;;;;;;5031157;28;20087;-45
2022/08/25 07:03:56;;;;;;;5.07;1.25;;;;;;;;;;5030740;28;20374;-43
2022/08/25 07:06:23;;;;;;;5.90;2.08;;;;;;;;;;5029040;28;20052;-44
2022/08/25 07:08:50;;;;;;;5.77;1.40;;;;;;;;;;5025451;28;20103;-42
2022/08/25 07:11:18;;;;;;;4.40;1.58;;;;;;;;;;5031540;28;20044;-43
2022/08/25 07:13:45;;;;;;;3.80;1.00;;;;;;;;;;5035932;28;20044;-42
2022/08/25 07:16:11;;;;;;;4.18;1.38;;;;;;;;;;5011912;28;20041;-44
2022/08/25 07:18:39;;;;;;;5.03;1.75;;;;;;;;;;5037817;28;20432;-42
2022/08/25 07:21:06;;;;;;;4.73;1.50;;;;;;;;;;5029532;28;20059;-42
2022/08/25 07:23:33;;;;;;;7.22;2.67;;;;;;;;;;5038025;28;20473;-43
2022/08/25 07:26:07;;;;;;;5.00;1.52;;;;;;;;;;5032064;28;20051;-46
2022/08/25 07:28:34;;;;;;;5.65;1.98;;;;;;;;;;5041340;28;20568;-42
2022/08/25 07:31:01;;;;;;;5.40;1.70;;;;;;;;;;5012407;28;20037;-42
2022/08/25 07:33:27;;;;;;;5.83;2.17;;;;;;;;;;5035215;28;20466;-41
2022/08/25 07:35:55;;;;;;;6.53;2.55;;;;;;;;;;5037417;28;20043;-43
2022/08/25 07:38:21;;;;;;;7.05;2.15;;;;;;;;;;5035215;28;20045;-42
2022/08/25 07:40:53;;;;;;;7.07;2.70;;;;;;;;;;5037039;28;20098;-42
2022/08/25 07:43:20;;;;;;;7.57;3.30;;;;;;;;;;5032103;28;20053;-42
2022/08/25 07:45:47;;;;;;;8.83;3.57;;;;;;;;;;5022887;28;20120;-42
2022/08/25 07:48:13;;;;;;;7.60;2.88;;;;;;;;;;5034963;28;20391;-42
2022/08/25 07:50:41;;;;;;;8.23;3.60;;;;;;;;;;5032903;28;20091;-41
2022/08/25 07:53:09;;;;;;;7.45;3.05;;;;;;;;;;5028434;28;20049;-42
2022/08/25 07:55:36;;;;;;;11.00;3.95;;;;;;;;;;5016596;28;20487;-41
2022/08/25 07:58:03;;;;;;;9.23;3.67;;;;;;;;;;4341576;28;10000811;-42
2022/08/25 08:00:32;;;;;;;8.50;3.73;;;;;;;;;;5041812;28;20384;-42
2022/08/25 08:03:00;;;;;;;9.10;3.45;;;;;;;;;;5036826;28;20049;-44
2022/08/25 08:05:27;;;;;;;8.07;3.05;;;;;;;;;;5041817;28;20041;-40
2022/08/25 08:07:54;;;;;;;7.70;3.30;;;;;;;;;;5026824;28;20099;-42
2022/08/25 08:10:24;;;;;;;9.05;3.67;;;;;;;;;;5032508;28;20048;-41
2022/08/25 08:12:50;;;;;;;8.23;3.80;;;;;;;;;;5021662;28;20465;-42
2022/08/25 08:15:18;;;;;;;10.60;4.40;;;;;;;;;;4681269;28;10000870;-41
2022/08/25 08:17:44;;;;;;;11.57;4.60;;;;;;;;;;5011548;28;20049;-41
2022/08/25 08:20:11;;;;;;;10.90;5.00;;;;;;;;;;5014654;28;20632;-41
2022/08/25 08:22:39;;;;;;;10.68;4.47;;;;;;;;;;5029042;28;20041;-41
2022/08/25 08:25:07;;;;;;;10.20;4.37;;;;;;;;;;5011598;28;20905;-42
2022/08/25 08:27:35;;;;;;;12.23;4.93;;;;;;;;;;5011709;28;20079;-41
2022/08/25 08:30:02;;;;;;;10.18;5.10;;;;;;;;;;4999624;28;20248;-43
2022/08/25 08:32:29;;;;;;;10.13;5.10;;;;;;;;;;5012977;28;20045;-43
2022/08/25 08:34:56;;;;;;;9.32;5.00;;;;;;;;;;4996398;28;20518;-42
2022/08/25 08:37:23;;;;;;;10.10;4.93;;;;;;;;;;5013364;28;20045;-40
2022/08/25 08:39:51;;;;;;;10.63;4.82;;;;;;;;;;5013338;28;20541;-40
2022/08/25 08:42:23;;;;;;;13.10;5.25;;;;;;;;;;5019658;28;20057;-41
2022/08/25 08:45:04;;;;;;;12.23;4.85;;;;;;;;;;5012713;28;20443;-43
2022/08/25 08:47:37;;;;;;;10.32;4.60;;;;;;;;;;4994985;28;20107;-40
2022/08/25 08:50:05;;;;;;;10.87;5.40;;;;;;;;;;5012217;28;20029;-40
2022/08/25 08:52:36;;;;;;;9.95;4.85;;;;;;;;;;5013885;28;20036;-41
2022/08/25 08:55:03;;;;;;;11.40;4.50;;;;;;;;;;5015927;28;20056;-43
2022/08/25 08:57:31;;;;;;;8.55;4.28;;;;;;;;;;5007155;28;20045;-44
2022/08/25 08:59:59;;;;;;;10.63;5.18;;;;;;;;;;5017624;28;20052;-42
2022/08/25 09:02:28;;;;;;;9.93;4.97;;;;;;;;;;5016844;28;20033;-41
2022/08/25 09:04:59;;;;;;;10.65;4.28;;;;;;;;;;5017916;28;20045;-43
2022/08/25 09:07:29;;;;;;;9.43;4.25;;;;;;;;;;4998272;28;20051;-41
2022/08/25 09:09:56;;;;;;;9.35;3.92;;;;;;;;;;5013978;28;20130;-43
2022/08/25 09:12:26;;;;;;;9.82;4.05;;;;;;;;;;5016047;28;20479;-41
2022/08/25 09:14:59;;;;;;;8.87;3.83;;;;;;;;;;5011937;28;20045;-41
2022/08/25 09:17:34;;;;;;;8.98;4.28;;;;;;;;;;5007501;28;20580;-45
2022/08/25 09:20:11;;;;;;;12.02;5.00;;;;;;;;;;5016964;28;20150;-43
2022/08/25 09:22:43;;;;;;;11.80;4.68;;;;;;;;;;5009965;28;20494;-41
2022/08/25 09:25:15;;;;;;;10.82;4.80;;;;;;;;;;5020903;28;20029;-41
2022/08/25 09:27:47;;;;;;;10.00;3.80;;;;;;;;;;4999340;28;21417;-40
2022/08/25 09:30:15;;;;;;;9.00;4.20;;;;;;;;;;4992843;28;20067;-41
2022/08/25 09:32:42;;;;;;;10.95;3.90;;;;;;;;;;4998957;28;20473;-41
2022/08/25 09:35:14;;;;;;;12.13;4.90;;;;;;;;;;5007329;28;20053;-41
2022/08/25 09:37:40;;;;;;;10.85;4.57;;;;;;;;;;5003331;28;20049;-44
2022/08/25 09:40:10;;;;;;;12.40;4.80;;;;;;;;;;5018138;28;20771;-41
2022/08/25 09:42:46;;;;;;;12.60;5.10;;;;;;;;;;5008932;28;20123;-41
2022/08/25 09:45:13;;;;;;;16.67;5.45;;;;;;;;;;5009311;28;20457;-40
2022/08/25 09:47:42;;;;;;;14.18;5.45;;;;;;;;;;4992402;28;20041;-42
2022/08/25 09:50:13;;;;;;;13.63;5.30;;;;;;;;;;5016087;28;20099;-40
2022/08/25 09:52:43;;;;;;;12.17;5.87;;;;;;;;;;5014802;28;20040;-43
2022/08/25 09:55:23;;;;;;;13.68;5.90;;;;;;;;;;4991116;28;20045;-41
2022/08/25 09:57:50;;;;;;;16.13;6.53;;;;;;;;;;5011442;28;20048;-42
2022/08/25 10:00:18;;;;;;;14.93;6.22;;;;;;;;;;5008910;28;20052;-41
2022/08/25 10:03:00;;;;;;;15.52;6.22;;;;;;;;;;5016112;28;20091;-42
2022/08/25 10:05:26;;;;;;;16.20;6.77;;;;;;;;;;5007801;28;20037;-43
2022/08/25 10:07:56;;;;;;;19.30;7.38;;;;;;;;;;5029694;28;21052;-40
2022/08/25 10:10:25;;;;;;;14.95;6.05;;;;;;;;;;5031516;28;20037;-41
2022/08/25 10:12:52;;;;;;;17.00;6.95;;;;;;;;;;5012607;28;20037;-40
2022/08/25 10:15:21;;;;;;;18.23;6.22;;;;;;;;;;5035399;28;20094;-41
2022/08/25 10:17:49;;;;;;;17.13;7.17;;;;;;;;;;4308472;28;10000573;-41
2022/08/25 10:20:18;;;;;;;14.55;6.75;;;;;;;;;;5029247;28;20106;-42
2022/08/25 10:22:45;;;;;;;15.23;6.25;;;;;;;;;;5020932;28;20091;-41
2022/08/25 10:25:15;;;;;;;14.65;6.55;;;;;;;;;;5030797;28;20048;-44
2022/08/25 10:27:47;;;;;;;15.70;6.78;;;;;;;;;;5023010;28;20048;-44
2022/08/25 10:30:17;;;;;;;15.63;6.23;;;;;;;;;;5027577;28;20094;-41
2022/08/25 10:32:54;;;;;;;13.75;7.55;;;;;;;;;;5033142;28;20044;-43
2022/08/25 10:35:24;;;;;;;14.40;7.80;;;;;;;;;;5015001;28;20155;-41
2022/08/25 10:37:58;;;;;;;14.80;7.72;;;;;;;;;;5029641;28;20033;-41
2022/08/25 10:40:28;;;;;;;15.57;7.55;;;;;;;;;;5024457;28;20108;-43
2022/08/25 10:43:01;;;;;;;15.73;8.30;;;;;;;;;;5031961;28;20482;-43
2022/08/25 10:45:43;;;;;;;15.65;7.53;;;;;;;;;;5027711;28;20063;-42
2022/08/25 10:48:18;;;;;;;14.98;8.35;;;;;;;;;;5037810;28;20056;-41
2022/08/25 10:50:47;;;;;;;15.23;8.57;;;;;;;;;;5010547;28;20654;-40
2022/08/25 10:53:25;;;;;;;14.73;7.95;;;;;;;;;;5027342;28;20053;-42
2022/08/25 10:55:58;;;;;;;13.90;7.27;;;;;;;;;;5024464;28;20083;-40
2022/08/25 10:58:30;;;;;;;15.32;8.23;;;;;;;;;;5024769;28;20059;-42
2022/08/25 11:01:01;;;;;;;15.93;8.35;;;;;;;;;;5033619;28;20502;-41
2022/08/25 11:03:33;;;;;;;17.20;8.52;;;;;;;;;;5036551;28;20572;-44
2022/08/25 11:06:03;;;;;;;15.57;8.18;;;;;;;;;;5004814;28;20045;-40
2022/08/25 11:08:34;;;;;;;14.57;8.13;;;;;;;;;;5037989;28;20491;-42
2022/08/25 11:11:05;;;;;;;17.40;9.07;;;;;;;;;;5027956;28;20064;-43
2022/08/25 11:13:38;;;;;;;18.33;8.38;;;;;;;;;;5034296;28;20036;-43
2022/08/25 11:16:10;;;;;;;16.65;8.90;;;;;;;;;;5032748;28;20037;-42
2022/08/25 11:18:40;;;;;;;19.58;9.13;;;;;;;;;;5030291;28;21717;-40
2022/08/25 11:21:09;;;;;;;14.53;8.27;;;;;;;;;;5034099;28;20041;-42
2022/08/25 11:23:38;;;;;;;16.70;8.90;;;;;;;;;;5032290;28;20041;-40
2022/08/25 11:26:09;;;;;;;14.95;7.80;;;;;;;;;;5032311;28;20037;-41
2022/08/25 11:28:42;;;;;;;15.07;8.07;;;;;;;;;;5034141;28;20041;-41
2022/08/25 11:31:10;;;;;;;13.15;7.72;;;;;;;;;;5032739;28;20055;-41
2022/08/25 11:33:37;;;;;;;16.73;8.70;;;;;;;;;;5032762;28;20045;-42
2022/08/25 11:36:06;;;;;;;17.45;8.73;;;;;;;;;;5014330;28;20037;-43
2022/08/25 11:38:39;;;;;;;15.02;8.40;;;;;;;;;;5032806;28;20053;-43
2022/08/25 11:41:14;;;;;;;14.32;7.68;;;;;;;;;;5029058;28;20041;-46
2022/08/25 11:43:47;;;;;;;12.35;6.50;;;;;;;;;;5029463;28;20486;-41
2022/08/25 11:46:23;;;;;;;12.57;6.30;;;;;;;;;;5034595;28;20514;-43
2022/08/25 11:48:54;;;;;;;11.05;6.22;;;;;;;;;;5029674;28;20057;-43
2022/08/25 11:51:30;;;;;;;10.38;5.47;;;;;;;;;;5034335;28;20033;-42
2022/08/25 11:54:07;;;;;;;9.00;4.78;;;;;;;;;;5033086;28;20059;-40
2022/08/25 11:56:37;;;;;;;13.13;6.13;;;;;;;;;;5025418;28;20048;-42
2022/08/25 11:59:04;;;;;;;11.23;4.67;;;;;;;;;;5033218;28;20044;-46
2022/08/25 12:01:49;;;;;;;12.02;5.60;;;;;;;;;;5030577;28;20051;-44
2022/08/25 12:04:31;;;;;;;10.57;5.22;;;;;;;;;;5015022;28;20049;-45
2022/08/25 12:07:25;;;;;;;11.13;5.47;;;;;;;;;;5012060;28;20121;-42
2022/08/25 12:10:12;;;;;;;11.02;5.20;;;;;;;;;;4987759;28;20092;-43
2022/08/25 12:12:56;;;;;;;9.90;5.13;;;;;;;;;;5013945;28;20048;-45
2022/08/25 12:15:25;;;;;;;10.48;5.57;;;;;;;;;;5012160;28;20288;-45
2022/08/25 12:18:06;;;;;;;10.38;4.85;;;;;;;;;;5002951;28;20743;-41
2022/08/25 12:20:48;;;;;;;9.02;4.40;;;;;;;;;;5008166;28;20203;-42
2022/08/25 12:23:15;;;;;;;8.45;3.70;;;;;;;;;;5013615;28;20049;-43
2022/08/25 12:25:53;;;;;;;7.93;3.87;;;;;;;;;;4663314;28;10000534;-46
2022/08/25 12:28:42;;;;;;;7.03;3.35;;;;;;;;;;5001146;28;20083;-43
2022/08/25 12:31:21;;;;;;;8.30;4.32;;;;;;;;;;5013108;28;20040;-44
2022/08/25 12:33:56;;;;;;;9.55;3.80;;;;;;;;;;5014437;28;20047;-44
2022/08/25 12:36:29;;;;;;;7.57;3.97;;;;;;;;;;5009210;28;20477;-42
2022/08/25 12:39:07;;;;;;;7.60;3.90;;;;;;;;;;5005182;28;20076;-42
2022/08/25 12:41:34;;;;;;;7.70;4.18;;;;;;;;;;5008801;28;20364;-44
2022/08/25 12:44:15;;;;;;;8.93;4.07;;;;;;;;;;5012479;28;20048;-41
2022/08/25 12:46:44;;;;;;;9.00;4.32;;;;;;;;;;5012178;28;20063;-43
2022/08/25 12:49:28;;;;;;;9.40;4.47;;;;;;;;;;4993530;28;20426;-47
2022/08/25 12:51:57;;;;;;;9.93;4.63;;;;;;;;;;5008879;28;20049;-45
2022/08/25 12:54:31;;;;;;;9.55;4.05;;;;;;;;;;4979438;28;20515;-41
2022/08/25 12:57:01;;;;;;;9.20;4.18;;;;;;;;;;4989025;28;20045;-45
2022/08/25 12:59:38;;;;;;;9.02;4.60;;;;;;;;;;4975588;28;20052;-43
2022/08/25 13:02:23;;;;;;;9.73;4.75;;;;;;;;;;4990995;28;20049;-43
2022/08/25 13:05:07;;;;;;;9.77;4.43;;;;;;;;;;4992914;28;20041;-45
2022/08/25 13:07:46;;;;;;;7.97;3.92;;;;;;;;;;4617549;28;10000362;-44
2022/08/25 13:10:22;;;;;;;9.13;4.45;;;;;;;;;;4989682;28;20033;-44
2022/08/25 13:12:52;;;;;;;8.60;4.20;;;;;;;;;;4989246;28;20124;-44
2022/08/25 13:15:27;;;;;;;8.95;4.25;;;;;;;;;;4989954;28;20045;-41
2022/08/25 13:17:54;;;;;;;8.43;3.65;;;;;;;;;;4985580;28;20057;-44
2022/08/25 13:20:24;;;;;;;8.30;4.10;;;;;;;;;;4975069;28;20842;-44
2022/08/25 13:22:51;;;;;;;9.38;3.88;;;;;;;;;;4989518;28;20553;-42
2022/08/25 13:25:19;;;;;;;8.27;3.50;;;;;;;;;;4988421;28;20703;-41
2022/08/25 13:27:48;;;;;;;8.05;3.80;;;;;;;;;;4977888;28;20657;-42
2022/08/25 13:30:23;;;;;;;8.73;4.15;;;;;;;;;;4982931;28;20029;-42
2022/08/25 13:32:51;;;;;;;8.73;4.63;;;;;;;;;;4986938;28;20033;-44
2022/08/25 13:35:19;;;;;;;7.55;3.85;;;;;;;;;;4958023;28;20511;-44
2022/08/25 13:37:45;;;;;;;8.03;3.57;;;;;;;;;;4984479;28;20835;-46
2022/08/25 13:40:15;;;;;;;8.13;3.92;;;;;;;;;;4996012;28;20043;-45
2022/08/25 13:42:43;;;;;;;9.45;4.13;;;;;;;;;;4990224;28;20088;-42
2022/08/25 13:45:13;;;;;;;7.63;3.10;;;;;;;;;;4999434;28;20038;-41
2022/08/25 13:47:41;;;;;;;7.70;3.15;;;;;;;;;;4986305;28;20046;-42
2022/08/25 13:50:20;;;;;;;7.95;4.00;;;;;;;;;;4990034;28;20471;-42
2022/08/25 13:52:49;;;;;;;8.10;3.72;;;;;;;;;;4987922;28;20048;-41
2022/08/25 13:55:20;;;;;;;8.40;3.97;;;;;;;;;;5014433;28;20068;-45
2022/08/25 13:57:48;;;;;;;8.23;3.57;;;;;;;;;;5003729;28;20051;-40
2022/08/25 14:00:25;;;;;;;7.55;3.63;;;;;;;;;;5005472;28;20048;-44
2022/08/25 14:02:53;;;;;;;7.93;3.38;;;;;;;;;;5016703;28;20036;-45
2022/08/25 14:05:32;;;;;;;5.50;2.47;;;;;;;;;;4997007;28;20206;-46
2022/08/25 14:07:58;;;;;;;7.07;2.60;;;;;;;;;;5004592;28;20040;-45
2022/08/25 14:10:33;;;;;;;6.93;2.90;;;;;;;;;;5012786;28;20052;-44
2022/08/25 14:13:14;;;;;;;5.13;2.22;;;;;;;;;;4990219;28;20627;-41
2022/08/25 14:15:41;;;;;;;5.75;2.20;;;;;;;;;;5015700;28;20041;-43
2022/08/25 14:18:10;;;;;;;6.53;2.55;;;;;;;;;;5001886;28;20033;-41
2022/08/25 14:20:46;;;;;;;5.28;2.22;;;;;;;;;;5013886;28;20481;-44
2022/08/25 14:23:15;;;;;;;6.53;2.40;;;;;;;;;;5013510;28;20033;-42
2022/08/25 14:25:43;;;;;;;5.60;2.35;;;;;;;;;;5006149;28;20379;-42
2022/08/25 14:28:11;;;;;;;5.88;2.30;;;;;;;;;;5009971;28;20045;-43
2022/08/25 14:30:40;;;;;;;5.93;2.40;;;;;;;;;;5005696;28;20047;-45
2022/08/25 14:33:07;;;;;;;7.53;2.60;;;;;;;;;;5016646;28;20048;-44
2022/08/25 14:35:34;;;;;;;6.87;2.57;;;;;;;;;;5009085;28;20589;-45
2022/08/25 14:38:05;;;;;;;6.13;2.40;;;;;;;;;;4982218;28;20483;-44
2022/08/25 14:40:32;;;;;;;5.93;2.60;;;;;;;;;;5017244;28;20048;-45
2022/08/25 14:42:58;;;;;;;5.90;2.58;;;;;;;;;;5013160;28;20044;-42
2022/08/25 14:45:26;;;;;;;6.80;2.65;;;;;;;;;;5014498;28;20120;-46
2022/08/25 14:47:53;;;;;;;6.57;2.80;;;;;;;;;;4993726;28;20411;-42
2022/08/25 14:50:20;;;;;;;7.53;2.60;;;;;;;;;;5016339;28;20108;-44
2022/08/25 14:52:48;;;;;;;5.57;2.42;;;;;;;;;;5018957;28;20045;-46